sensor_id;sensor_type;location;lat;lon;timestamp;pressure;altitude;pressure_sealevel;temperature;humidity
49377;BME280;35253;34.688;33.040;2022-12-18T00:00:28;101829.56;;;16.98;100.00
49377;BME280;35253;34.688;33.040;2022-12-18T00:02:53;101826.84;;;16.98;100.00
49377;BME280;35253;34.688;33.040;2022-12-18T00:05:18;101827.59;;;17.00;100.00
49377;BME280;35253;34.688;33.040;2022-12-18T00:07:44;101830.91;;;16.91;100.00
49377;BME280;35253;34.688;33.040;2022-12-18T00:10:09;101831.47;;;16.96;100.00
49377;BME280;35253;34.688;33.040;2022-12-18T00:12:35;101824.09;;;16.85;100.00
49377;BME280;35253;34.688;33.040;2022-12-18T00:15:00;101821.31;;;16.87;100.00
49377;BME280;35253;34.688;33.040;2022-12-18T00:17:26;101822.09;;;16.89;100.00
49377;BME280;35253;34.688;33.040;2022-12-18T00:19:51;101825.84;;;16.86;100.00
49377;BME280;35253;34.688;33.040;2022-12-18T00:22:17;101825.19;;;16.83;100.00
49377;BME280;35253;34.688;33.040;2022-12-18T00:24:42;101822.38;;;16.84;100.00
49377;BME280;35253;34.688;33.040;2022-12-18T00:27:08;101810.31;;;16.90;100.00
49377;BME280;35253;34.688;33.040;2022-12-18T00:29:33;101818.53;;;16.88;100.00
49377;BME280;35253;34.688;33.040;2022-12-18T00:31:59;101818.94;;;16.82;100.00
49377;BME280;35253;34.688;33.040;2022-12-18T00:34:24;101815.91;;;16.87;100.00
49377;BME280;35253;34.688;33.040;2022-12-18T00:36:50;101814.63;;;16.80;100.00
49377;BME280;35253;34.688;33.040;2022-12-18T00:39:15;101829.66;;;16.70;100.00
49377;BME280;35253;34.688;33.040;2022-12-18T00:41:41;101828.34;;;16.62;100.00
49377;BME280;35253;34.688;33.040;2022-12-18T00:44:25;101829.03;;;16.79;100.00
49377;BME280;35253;34.688;33.040;2022-12-18T00:46:50;101829.03;;;16.79;100.00
49377;BME280;35253;34.688;33.040;2022-12-18T00:49:16;101831.53;;;16.82;100.00
49377;BME280;35253;34.688;33.040;2022-12-18T00:51:42;101818.47;;;16.76;100.00
49377;BME280;35253;34.688;33.040;2022-12-18T00:54:08;101814.81;;;16.77;100.00
49377;BME280;35253;34.688;33.040;2022-12-18T00:56:37;101814.63;;;16.80;100.00
49377;BME280;35253;34.688;33.040;2022-12-18T00:59:03;101814.16;;;16.73;100.00
49377;BME280;35253;34.688;33.040;2022-12-18T01:01:28;101812.84;;;16.66;100.00
49377;BME280;35253;34.688;33.040;2022-12-18T01:03:54;101802.31;;;16.76;100.00
49377;BME280;35253;34.688;33.040;2022-12-18T01:06:19;101812.63;;;16.69;100.00
49377;BME280;35253;34.688;33.040;2022-12-18T01:08:45;101811.75;;;16.68;100.00
49377;BME280;35253;34.688;33.040;2022-12-18T01:11:11;101812.41;;;16.72;100.00
49377;BME280;35253;34.688;33.040;2022-12-18T01:13:37;101815.88;;;16.74;100.00
49377;BME280;35253;34.688;33.040;2022-12-18T01:16:03;101810.94;;;16.81;100.00
49377;BME280;35253;34.688;33.040;2022-12-18T01:18:28;101808.47;;;16.78;100.00
49377;BME280;35253;34.688;33.040;2022-12-18T01:20:54;101814.06;;;16.75;100.00
49377;BME280;35253;34.688;33.040;2022-12-18T01:23:19;101817.44;;;16.64;100.00
49377;BME280;35253;34.688;33.040;2022-12-18T01:25:45;101813.72;;;16.66;100.00
49377;BME280;35253;34.688;33.040;2022-12-18T01:28:10;101819.75;;;16.70;100.00
49377;BME280;35253;34.688;33.040;2022-12-18T01:30:36;101815.22;;;16.71;100.00
49377;BME280;35253;34.688;33.040;2022-12-18T01:33:02;101807.09;;;16.58;100.00
49377;BME280;35253;34.688;33.040;2022-12-18T01:35:29;101816.97;;;16.72;100.00
49377;BME280;35253;34.688;33.040;2022-12-18T01:37:54;101804.03;;;16.77;100.00
49377;BME280;35253;34.688;33.040;2022-12-18T01:40:20;101810.03;;;16.67;100.00
49377;BME280;35253;34.688;33.040;2022-12-18T01:42:49;101791.31;;;16.66;100.00
49377;BME280;35253;34.688;33.040;2022-12-18T01:47:45;101792.56;;;16.60;100.00
49377;BME280;35253;34.688;33.040;2022-12-18T01:50:16;101796.03;;;16.62;100.00
49377;BME280;35253;34.688;33.040;2022-12-18T01:52:42;101805.94;;;16.62;100.00
49377;BME280;35253;34.688;33.040;2022-12-18T01:55:09;101804.00;;;16.50;100.00
49377;BME280;35253;34.688;33.040;2022-12-18T01:57:35;101802.41;;;16.33;100.00
49377;BME280;35253;34.688;33.040;2022-12-18T02:00:14;101801.06;;;16.40;100.00
49377;BME280;35253;34.688;33.040;2022-12-18T02:02:44;101804.34;;;16.45;100.00
49377;BME280;35253;34.688;33.040;2022-12-18T02:05:10;101803.91;;;16.51;100.00
49377;BME280;35253;34.688;33.040;2022-12-18T02:07:42;101807.22;;;16.28;100.00
49377;BME280;35253;34.688;33.040;2022-12-18T02:10:19;101812.47;;;16.17;100.00
49377;BME280;35253;34.688;33.040;2022-12-18T02:15:24;101814.91;;;16.34;100.00
49377;BME280;35253;34.688;33.040;2022-12-18T02:17:56;101807.81;;;16.33;100.00
49377;BME280;35253;34.688;33.040;2022-12-18T02:20:28;101808.78;;;16.32;100.00
49377;BME280;35253;34.688;33.040;2022-12-18T02:28:19;101810.22;;;16.23;100.00
49377;BME280;35253;34.688;33.040;2022-12-18T02:30:46;101806.28;;;16.29;100.00
49377;BME280;35253;34.688;33.040;2022-12-18T02:33:13;101810.19;;;16.38;100.00
49377;BME280;35253;34.688;33.040;2022-12-18T02:35:39;101806.63;;;16.37;100.00
49377;BME280;35253;34.688;33.040;2022-12-18T02:38:06;101812.16;;;16.21;100.00
49377;BME280;35253;34.688;33.040;2022-12-18T02:40:31;101806.47;;;16.40;100.00
49377;BME280;35253;34.688;33.040;2022-12-18T02:43:08;101811.47;;;16.32;100.00
49377;BME280;35253;34.688;33.040;2022-12-18T02:45:34;101815.69;;;16.36;100.00
49377;BME280;35253;34.688;33.040;2022-12-18T02:47:59;101818.38;;;16.36;100.00
49377;BME280;35253;34.688;33.040;2022-12-18T02:50:36;101817.75;;;16.18;100.00
49377;BME280;35253;34.688;33.040;2022-12-18T02:53:06;101824.00;;;16.19;100.00
49377;BME280;35253;34.688;33.040;2022-12-18T02:55:53;101828.00;;;16.26;100.00
49377;BME280;35253;34.688;33.040;2022-12-18T02:58:27;101827.94;;;16.13;100.00
49377;BME280;35253;34.688;33.040;2022-12-18T03:01:14;101824.53;;;16.24;100.00
49377;BME280;35253;34.688;33.040;2022-12-18T03:06:08;101834.00;;;16.17;100.00
49377;BME280;35253;34.688;33.040;2022-12-18T03:08:37;101834.38;;;16.11;100.00
49377;BME280;35253;34.688;33.040;2022-12-18T03:11:05;101834.88;;;16.03;100.00
49377;BME280;35253;34.688;33.040;2022-12-18T03:13:34;101837.47;;;16.19;100.00
49377;BME280;35253;34.688;33.040;2022-12-18T03:16:01;101848.22;;;16.05;100.00
49377;BME280;35253;34.688;33.040;2022-12-18T03:18:38;101845.63;;;15.89;100.00
49377;BME280;35253;34.688;33.040;2022-12-18T03:21:06;101849.47;;;15.99;100.00
49377;BME280;35253;34.688;33.040;2022-12-18T03:23:36;101846.13;;;16.10;100.00
49377;BME280;35253;34.688;33.040;2022-12-18T03:26:05;101852.53;;;15.93;100.00
49377;BME280;35253;34.688;33.040;2022-12-18T03:28:32;101857.25;;;16.04;100.00
49377;BME280;35253;34.688;33.040;2022-12-18T03:30:58;101847.56;;;16.01;100.00
49377;BME280;35253;34.688;33.040;2022-12-18T03:33:27;101857.25;;;16.04;100.00
49377;BME280;35253;34.688;33.040;2022-12-18T03:35:54;101864.19;;;15.80;100.00
49377;BME280;35253;34.688;33.040;2022-12-18T03:38:20;101866.44;;;15.71;100.00
49377;BME280;35253;34.688;33.040;2022-12-18T03:43:19;101866.09;;;15.92;100.00
49377;BME280;35253;34.688;33.040;2022-12-18T03:45:48;101865.13;;;15.78;100.00
49377;BME280;35253;34.688;33.040;2022-12-18T03:48:21;101869.81;;;15.89;100.00
49377;BME280;35253;34.688;33.040;2022-12-18T03:50:52;101867.91;;;15.91;100.00
49377;BME280;35253;34.688;33.040;2022-12-18T03:53:35;101864.75;;;15.99;100.00
49377;BME280;35253;34.688;33.040;2022-12-18T03:56:04;101865.97;;;15.93;100.00
49377;BME280;35253;34.688;33.040;2022-12-18T03:58:30;101870.13;;;15.99;100.00
49377;BME280;35253;34.688;33.040;2022-12-18T04:00:59;101873.75;;;15.98;100.00
49377;BME280;35253;34.688;33.040;2022-12-18T04:03:25;101877.59;;;15.94;100.00
49377;BME280;35253;34.688;33.040;2022-12-18T04:05:51;101867.44;;;15.99;100.00
49377;BME280;35253;34.688;33.040;2022-12-18T04:08:17;101874.63;;;15.98;100.00
49377;BME280;35253;34.688;33.040;2022-12-18T04:10:43;101877.44;;;15.97;100.00
49377;BME280;35253;34.688;33.040;2022-12-18T04:13:09;101881.09;;;15.96;100.00
49377;BME280;35253;34.688;33.040;2022-12-18T04:15:35;101879.94;;;16.00;100.00
49377;BME280;35253;34.688;33.040;2022-12-18T04:18:01;101884.94;;;15.92;100.00
49377;BME280;35253;34.688;33.040;2022-12-18T04:20:26;101880.13;;;15.83;100.00
49377;BME280;35253;34.688;33.040;2022-12-18T04:22:52;101886.25;;;15.85;100.00
49377;BME280;35253;34.688;33.040;2022-12-18T04:25:17;101882.69;;;15.70;100.00
49377;BME280;35253;34.688;33.040;2022-12-18T04:27:43;101890.25;;;15.63;100.00
49377;BME280;35253;34.688;33.040;2022-12-18T04:30:09;101896.03;;;15.57;100.00
49377;BME280;35253;34.688;33.040;2022-12-18T04:32:34;101891.81;;;15.67;100.00
49377;BME280;35253;34.688;33.040;2022-12-18T04:35:00;101898.16;;;15.66;100.00
49377;BME280;35253;34.688;33.040;2022-12-18T04:37:25;101903.94;;;15.74;100.00
49377;BME280;35253;34.688;33.040;2022-12-18T04:39:51;101904.81;;;15.75;100.00
49377;BME280;35253;34.688;33.040;2022-12-18T04:42:17;101908.59;;;15.71;100.00
49377;BME280;35253;34.688;33.040;2022-12-18T04:44:42;101914.66;;;15.60;100.00
49377;BME280;35253;34.688;33.040;2022-12-18T04:47:08;101914.38;;;15.65;100.00
49377;BME280;35253;34.688;33.040;2022-12-18T04:49:33;101921.16;;;15.56;100.00
49377;BME280;35253;34.688;33.040;2022-12-18T04:51:59;101919.16;;;15.60;100.00
49377;BME280;35253;34.688;33.040;2022-12-18T04:54:24;101921.88;;;15.74;100.00
49377;BME280;35253;34.688;33.040;2022-12-18T04:56:50;101920.75;;;15.78;100.00
49377;BME280;35253;34.688;33.040;2022-12-18T04:59:16;101917.25;;;15.76;100.00
49377;BME280;35253;34.688;33.040;2022-12-18T05:01:42;101920.75;;;15.78;100.00
49377;BME280;35253;34.688;33.040;2022-12-18T05:04:08;101931.19;;;15.68;100.00
49377;BME280;35253;34.688;33.040;2022-12-18T05:06:33;101921.78;;;15.75;100.00
49377;BME280;35253;34.688;33.040;2022-12-18T05:08:58;101920.44;;;15.68;100.00
49377;BME280;35253;34.688;33.040;2022-12-18T05:11:24;101921.88;;;15.74;100.00
49377;BME280;35253;34.688;33.040;2022-12-18T05:13:49;101931.84;;;15.72;100.00
49377;BME280;35253;34.688;33.040;2022-12-18T05:16:15;101933.13;;;15.66;100.00
49377;BME280;35253;34.688;33.040;2022-12-18T05:18:40;101932.38;;;15.78;100.00
49377;BME280;35253;34.688;33.040;2022-12-18T05:21:06;101935.25;;;15.90;100.00
49377;BME280;35253;34.688;33.040;2022-12-18T05:23:31;101935.56;;;15.99;100.00
49377;BME280;35253;34.688;33.040;2022-12-18T05:25:58;101940.47;;;15.93;100.00
49377;BME280;35253;34.688;33.040;2022-12-18T05:28:24;101936.44;;;16.00;100.00
49377;BME280;35253;34.688;33.040;2022-12-18T05:30:50;101949.28;;;15.95;100.00
49377;BME280;35253;34.688;33.040;2022-12-18T05:33:17;101952.75;;;15.97;100.00
49377;BME280;35253;34.688;33.040;2022-12-18T05:35:51;101947.94;;;16.02;100.00
49377;BME280;35253;34.688;33.040;2022-12-18T05:38:17;101953.91;;;16.07;100.00
49377;BME280;35253;34.688;33.040;2022-12-18T05:40:43;101954.19;;;16.02;100.00
49377;BME280;35253;34.688;33.040;2022-12-18T05:43:09;101956.97;;;16.15;100.00
49377;BME280;35253;34.688;33.040;2022-12-18T05:45:36;101955.06;;;16.17;100.00
49377;BME280;35253;34.688;33.040;2022-12-18T05:48:02;101959.81;;;16.28;100.00
49377;BME280;35253;34.688;33.040;2022-12-18T05:50:27;101962.97;;;16.34;100.00
49377;BME280;35253;34.688;33.040;2022-12-18T05:52:53;101961.31;;;16.46;100.00
49377;BME280;35253;34.688;33.040;2022-12-18T05:55:18;101960.84;;;16.39;100.00
49377;BME280;35253;34.688;33.040;2022-12-18T05:57:44;101962.47;;;16.42;100.00
49377;BME280;35253;34.688;33.040;2022-12-18T06:00:09;101963.81;;;16.49;100.00
49377;BME280;35253;34.688;33.040;2022-12-18T06:02:35;101963.34;;;16.56;100.00
49377;BME280;35253;34.688;33.040;2022-12-18T06:05:00;101964.69;;;16.63;100.00
49377;BME280;35253;34.688;33.040;2022-12-18T06:07:26;101969.50;;;16.73;100.00
49377;BME280;35253;34.688;33.040;2022-12-18T06:09:51;101975.16;;;16.82;100.00
49377;BME280;35253;34.688;33.040;2022-12-18T06:12:17;101975.06;;;16.84;100.00
49377;BME280;35253;34.688;33.040;2022-12-18T06:14:42;101972.66;;;16.93;100.00
49377;BME280;35253;34.688;33.040;2022-12-18T06:17:08;101981.09;;;17.01;100.00
49377;BME280;35253;34.688;33.040;2022-12-18T06:19:33;101980.59;;;17.09;100.00
49377;BME280;35253;34.688;33.040;2022-12-18T06:21:58;101979.19;;;17.16;100.00
49377;BME280;35253;34.688;33.040;2022-12-18T06:24:24;101991.31;;;17.23;100.00
49377;BME280;35253;34.688;33.040;2022-12-18T06:26:50;101989.28;;;17.27;100.00
49377;BME280;35253;34.688;33.040;2022-12-18T06:29:15;101990.06;;;17.29;100.00
49377;BME280;35253;34.688;33.040;2022-12-18T06:31:41;101985.31;;;17.32;100.00
49377;BME280;35253;34.688;33.040;2022-12-18T06:34:06;101989.13;;;17.42;100.00
49377;BME280;35253;34.688;33.040;2022-12-18T06:36:32;101994.88;;;17.50;100.00
49377;BME280;35253;34.688;33.040;2022-12-18T06:38:57;101988.56;;;17.64;100.00
49377;BME280;35253;34.688;33.040;2022-12-18T06:41:24;101990.88;;;17.83;100.00
49377;BME280;35253;34.688;33.040;2022-12-18T06:43:49;101999.94;;;17.82;100.00
49377;BME280;35253;34.688;33.040;2022-12-18T06:46:15;101988.72;;;17.88;100.00
49377;BME280;35253;34.688;33.040;2022-12-18T06:48:40;101992.94;;;17.92;100.00
49377;BME280;35253;34.688;33.040;2022-12-18T06:51:06;101999.13;;;17.94;100.00
49377;BME280;35253;34.688;33.040;2022-12-18T06:53:32;101999.78;;;17.97;100.00
49377;BME280;35253;34.688;33.040;2022-12-18T06:56:01;101996.75;;;18.02;100.00
49377;BME280;35253;34.688;33.040;2022-12-18T06:58:27;101997.31;;;18.07;100.00
49377;BME280;35253;34.688;33.040;2022-12-18T07:00:53;102003.25;;;18.12;100.00
49377;BME280;35253;34.688;33.040;2022-12-18T07:03:18;102001.94;;;18.18;100.00
49377;BME280;35253;34.688;33.040;2022-12-18T07:05:43;102005.81;;;18.26;100.00
49377;BME280;35253;34.688;33.040;2022-12-18T07:08:09;102009.63;;;18.36;100.00
49377;BME280;35253;34.688;33.040;2022-12-18T07:10:40;102011.34;;;18.37;100.00
49377;BME280;35253;34.688;33.040;2022-12-18T07:13:05;102007.22;;;18.44;100.00
49377;BME280;35253;34.688;33.040;2022-12-18T07:15:31;102011.88;;;18.42;100.00
49377;BME280;35253;34.688;33.040;2022-12-18T07:17:56;102018.38;;;18.53;100.00
49377;BME280;35253;34.688;33.040;2022-12-18T07:20:22;102015.59;;;18.54;100.00
49377;BME280;35253;34.688;33.040;2022-12-18T07:22:47;102006.19;;;18.60;100.00
49377;BME280;35253;34.688;33.040;2022-12-18T07:25:13;102013.81;;;18.66;100.00
49377;BME280;35253;34.688;33.040;2022-12-18T07:27:38;102015.13;;;18.73;100.00
49377;BME280;35253;34.688;33.040;2022-12-18T07:30:04;102009.06;;;18.82;100.00
49377;BME280;35253;34.688;33.040;2022-12-18T07:32:30;102002.31;;;18.87;100.00
49377;BME280;35253;34.688;33.040;2022-12-18T07:34:55;102000.28;;;18.91;100.00
49377;BME280;35253;34.688;33.040;2022-12-18T07:37:21;102006.53;;;19.04;100.00
49377;BME280;35253;34.688;33.040;2022-12-18T07:39:46;102004.84;;;19.14;100.00
49377;BME280;35253;34.688;33.040;2022-12-18T07:42:11;102010.69;;;19.21;100.00
49377;BME280;35253;34.688;33.040;2022-12-18T07:44:55;102003.53;;;19.20;100.00
49377;BME280;35253;34.688;33.040;2022-12-18T07:47:21;102001.56;;;19.22;100.00
49377;BME280;35253;34.688;33.040;2022-12-18T07:49:46;102003.47;;;19.32;100.00
49377;BME280;35253;34.688;33.040;2022-12-18T07:52:12;102002.75;;;19.30;100.00
49377;BME280;35253;34.688;33.040;2022-12-18T07:54:38;101991.69;;;19.33;100.00
49377;BME280;35253;34.688;33.040;2022-12-18T07:57:05;102003.25;;;19.35;100.00
49377;BME280;35253;34.688;33.040;2022-12-18T07:59:30;101986.56;;;19.42;100.00
49377;BME280;35253;34.688;33.040;2022-12-18T08:01:56;101986.78;;;19.51;100.00
49377;BME280;35253;34.688;33.040;2022-12-18T08:04:21;101983.94;;;19.53;100.00
49377;BME280;35253;34.688;33.040;2022-12-18T08:06:47;101982.84;;;19.55;100.00
49377;BME280;35253;34.688;33.040;2022-12-18T08:09:12;101982.00;;;19.55;100.00
49377;BME280;35253;34.688;33.040;2022-12-18T08:11:38;101973.13;;;19.53;100.00
49377;BME280;35253;34.688;33.040;2022-12-18T08:14:03;101973.41;;;19.61;100.00
49377;BME280;35253;34.688;33.040;2022-12-18T08:16:29;101967.53;;;19.67;100.00
49377;BME280;35253;34.688;33.040;2022-12-18T08:18:55;101964.59;;;19.70;100.00
49377;BME280;35253;34.688;33.040;2022-12-18T08:21:25;101964.97;;;19.76;100.00
49377;BME280;35253;34.688;33.040;2022-12-18T08:23:51;101961.66;;;19.84;100.00
49377;BME280;35253;34.688;33.040;2022-12-18T08:26:17;101956.25;;;19.84;100.00
49377;BME280;35253;34.688;33.040;2022-12-18T08:28:43;101956.03;;;19.87;100.00
49377;BME280;35253;34.688;33.040;2022-12-18T08:31:08;101952.31;;;19.88;100.00
49377;BME280;35253;34.688;33.040;2022-12-18T08:33:34;101956.03;;;19.87;100.00
49377;BME280;35253;34.688;33.040;2022-12-18T08:36:00;101950.88;;;20.06;100.00
49377;BME280;35253;34.688;33.040;2022-12-18T08:38:26;101941.78;;;20.07;100.00
49377;BME280;35253;34.688;33.040;2022-12-18T08:41:02;101935.63;;;20.16;100.00
49377;BME280;35253;34.688;33.040;2022-12-18T08:43:28;101930.47;;;20.13;100.00
49377;BME280;35253;34.688;33.040;2022-12-18T08:46:16;101924.19;;;20.13;100.00
49377;BME280;35253;34.688;33.040;2022-12-18T08:48:42;101928.75;;;20.12;100.00
49377;BME280;35253;34.688;33.040;2022-12-18T08:51:08;101918.53;;;20.16;100.00
49377;BME280;35253;34.688;33.040;2022-12-18T08:53:35;101909.06;;;20.21;100.00
49377;BME280;35253;34.688;33.040;2022-12-18T08:56:00;101907.81;;;20.25;100.00
49377;BME280;35253;34.688;33.040;2022-12-18T08:58:25;101907.56;;;20.29;100.00
49377;BME280;35253;34.688;33.040;2022-12-18T09:00:51;101900.41;;;20.27;100.00
49377;BME280;35253;34.688;33.040;2022-12-18T09:03:17;101904.13;;;20.27;100.00
49377;BME280;35253;34.688;33.040;2022-12-18T09:05:43;101894.53;;;20.22;100.00
49377;BME280;35253;34.688;33.040;2022-12-18T09:08:11;101899.22;;;20.32;100.00
49377;BME280;35253;34.688;33.040;2022-12-18T09:10:43;101892.94;;;20.42;100.00
49377;BME280;35253;34.688;33.040;2022-12-18T09:13:13;101897.25;;;20.56;100.00
49377;BME280;35253;34.688;33.040;2022-12-18T09:15:43;101890.25;;;20.53;100.00
49377;BME280;35253;34.688;33.040;2022-12-18T09:18:10;101884.56;;;20.56;100.00
49377;BME280;35253;34.688;33.040;2022-12-18T09:20:36;101882.34;;;20.61;100.00
49377;BME280;35253;34.688;33.040;2022-12-18T09:23:02;101881.47;;;20.61;100.00
49377;BME280;35253;34.688;33.040;2022-12-18T09:25:29;101878.25;;;20.67;100.00
49377;BME280;35253;34.688;33.040;2022-12-18T09:27:58;101872.22;;;20.63;100.00
49377;BME280;35253;34.688;33.040;2022-12-18T09:30:24;101861.75;;;20.70;100.00
49377;BME280;35253;34.688;33.040;2022-12-18T09:32:49;101858.78;;;20.73;100.00
49377;BME280;35253;34.688;33.040;2022-12-18T09:35:15;101863.94;;;20.76;100.00
49377;BME280;35253;34.688;33.040;2022-12-18T09:37:49;101859.00;;;20.81;100.00
49377;BME280;35253;34.688;33.040;2022-12-18T09:40:18;101854.81;;;20.88;100.00
49377;BME280;35253;34.688;33.040;2022-12-18T09:42:45;101852.09;;;20.88;100.00
49377;BME280;35253;34.688;33.040;2022-12-18T09:45:13;101844.78;;;20.89;100.00
49377;BME280;35253;34.688;33.040;2022-12-18T09:47:39;101837.59;;;20.99;100.00
49377;BME280;35253;34.688;33.040;2022-12-18T09:50:13;101837.59;;;20.99;100.00
49377;BME280;35253;34.688;33.040;2022-12-18T09:52:41;101839.53;;;21.08;100.00
49377;BME280;35253;34.688;33.040;2022-12-18T09:57:34;101832.97;;;21.22;100.00
49377;BME280;35253;34.688;33.040;2022-12-18T10:00:15;101823.13;;;21.21;100.00
49377;BME280;35253;34.688;33.040;2022-12-18T10:02:42;101832.13;;;21.21;100.00
49377;BME280;35253;34.688;33.040;2022-12-18T10:05:20;101824.72;;;21.23;100.00
49377;BME280;35253;34.688;33.040;2022-12-18T10:10:27;101820.81;;;21.37;100.00
49377;BME280;35253;34.688;33.040;2022-12-18T10:15:40;101810.00;;;21.46;100.00
49377;BME280;35253;34.688;33.040;2022-12-18T10:18:17;101812.78;;;21.56;100.00
49377;BME280;35253;34.688;33.040;2022-12-18T10:20:52;101814.00;;;21.63;100.00
49377;BME280;35253;34.688;33.040;2022-12-18T10:23:37;101805.28;;;21.69;100.00
49377;BME280;35253;34.688;33.040;2022-12-18T10:26:07;101808.19;;;21.77;100.00
49377;BME280;35253;34.688;33.040;2022-12-18T10:28:35;101807.13;;;21.89;100.00
49377;BME280;35253;34.688;33.040;2022-12-18T10:31:01;101803.47;;;22.00;100.00
49377;BME280;35253;34.688;33.040;2022-12-18T10:33:28;101804.91;;;22.04;100.00
49377;BME280;35253;34.688;33.040;2022-12-18T10:35:54;101794.78;;;22.06;100.00
49377;BME280;35253;34.688;33.040;2022-12-18T10:43:15;101790.41;;;22.24;100.00
49377;BME280;35253;34.688;33.040;2022-12-18T10:45:41;101788.44;;;22.36;100.00
49377;BME280;35253;34.688;33.040;2022-12-18T10:48:19;101785.84;;;22.44;100.00
49377;BME280;35253;34.688;33.040;2022-12-18T10:50:47;101783.59;;;22.49;100.00
49377;BME280;35253;34.688;33.040;2022-12-18T10:53:16;101781.44;;;22.62;100.00
49377;BME280;35253;34.688;33.040;2022-12-18T10:55:44;101777.06;;;22.80;100.00
49377;BME280;35253;34.688;33.040;2022-12-18T11:01:11;101775.75;;;23.04;100.00
49377;BME280;35253;34.688;33.040;2022-12-18T11:03:38;101774.31;;;23.19;100.00
49377;BME280;35253;34.688;33.040;2022-12-18T11:06:14;101776.84;;;23.40;100.00
49377;BME280;35253;34.688;33.040;2022-12-18T11:08:41;101783.56;;;23.64;100.00
49377;BME280;35253;34.688;33.040;2022-12-18T11:11:14;101778.78;;;23.76;100.00
49377;BME280;35253;34.688;33.040;2022-12-18T11:13:41;101776.22;;;24.02;100.00
49377;BME280;35253;34.688;33.040;2022-12-18T11:16:18;101776.16;;;24.21;100.00
49377;BME280;35253;34.688;33.040;2022-12-18T11:18:43;101773.69;;;24.45;100.00
49377;BME280;35253;34.688;33.040;2022-12-18T11:21:10;101767.34;;;24.90;100.00
49377;BME280;35253;34.688;33.040;2022-12-18T11:23:37;101770.22;;;25.06;100.00
49377;BME280;35253;34.688;33.040;2022-12-18T11:26:09;101771.53;;;25.45;100.00
49377;BME280;35253;34.688;33.040;2022-12-18T11:28:35;101769.81;;;25.62;100.00
49377;BME280;35253;34.688;33.040;2022-12-18T11:33:40;101768.28;;;25.68;100.00
49377;BME280;35253;34.688;33.040;2022-12-18T11:36:07;101766.38;;;25.94;100.00
49377;BME280;35253;34.688;33.040;2022-12-18T11:38:38;101752.78;;;26.10;100.00
49377;BME280;35253;34.688;33.040;2022-12-18T11:41:21;101764.50;;;25.94;100.00
49377;BME280;35253;34.688;33.040;2022-12-18T11:44:09;101759.25;;;26.59;100.00
49377;BME280;35253;34.688;33.040;2022-12-18T11:46:43;101757.34;;;26.35;100.00
49377;BME280;35253;34.688;33.040;2022-12-18T11:49:27;101758.81;;;26.88;100.00
49377;BME280;35253;34.688;33.040;2022-12-18T11:54:30;101762.91;;;27.00;100.00
49377;BME280;35253;34.688;33.040;2022-12-18T11:57:01;101760.19;;;27.24;100.00
49377;BME280;35253;34.688;33.040;2022-12-18T12:02:19;101761.53;;;27.28;100.00
49377;BME280;35253;34.688;33.040;2022-12-18T12:04:56;101767.25;;;27.90;100.00
49377;BME280;35253;34.688;33.040;2022-12-18T12:15:29;101767.19;;;27.98;100.00
49377;BME280;35253;34.688;33.040;2022-12-18T12:18:02;101767.63;;;28.49;100.00
49377;BME280;35253;34.688;33.040;2022-12-18T12:20:36;101768.38;;;28.65;100.00
49377;BME280;35253;34.688;33.040;2022-12-18T12:26:10;101763.16;;;28.56;100.00
49377;BME280;35253;34.688;33.040;2022-12-18T12:28:42;101756.59;;;28.57;100.00
49377;BME280;35253;34.688;33.040;2022-12-18T12:33:42;101766.03;;;28.32;100.00
49377;BME280;35253;34.688;33.040;2022-12-18T12:38:41;101760.31;;;28.41;100.00
49377;BME280;35253;34.688;33.040;2022-12-18T12:41:14;101766.63;;;28.19;100.00
49377;BME280;35253;34.688;33.040;2022-12-18T12:44:02;101761.78;;;28.29;100.00
49377;BME280;35253;34.688;33.040;2022-12-18T12:46:28;101757.56;;;28.41;100.00
49377;BME280;35253;34.688;33.040;2022-12-18T12:48:59;101762.16;;;28.49;100.00
49377;BME280;35253;34.688;33.040;2022-12-18T12:51:45;101768.81;;;28.23;100.00
49377;BME280;35253;34.688;33.040;2022-12-18T12:54:18;101760.16;;;28.35;100.00
49377;BME280;35253;34.688;33.040;2022-12-18T12:57:05;101758.22;;;28.20;100.00
49377;BME280;35253;34.688;33.040;2022-12-18T12:59:37;101757.16;;;28.30;100.00
49377;BME280;35253;34.688;33.040;2022-12-18T13:02:20;101759.94;;;28.13;100.00
49377;BME280;35253;34.688;33.040;2022-12-18T13:04:58;101759.56;;;28.25;100.00
49377;BME280;35253;34.688;33.040;2022-12-18T13:13:08;101771.66;;;29.52;100.00
49377;BME280;35253;34.688;33.040;2022-12-18T13:18:04;101766.91;;;34.08;96.01
49377;BME280;35253;34.688;33.040;2022-12-18T13:20:40;101764.91;;;36.33;79.37
49377;BME280;35253;34.688;33.040;2022-12-18T13:23:28;101762.59;;;36.89;76.71
49377;BME280;35253;34.688;33.040;2022-12-18T13:25:56;101770.06;;;37.42;69.73
49377;BME280;35253;34.688;33.040;2022-12-18T13:31:09;101770.59;;;36.01;72.98
49377;BME280;35253;34.688;33.040;2022-12-18T13:38:45;101768.22;;;33.99;84.53
49377;BME280;35253;34.688;33.040;2022-12-18T13:43:43;101768.25;;;35.37;78.48
49377;BME280;35253;34.688;33.040;2022-12-18T13:51:39;101759.84;;;38.17;64.51
49377;BME280;35253;34.688;33.040;2022-12-18T13:56:42;101764.38;;;36.84;65.17